Time;durP1;ratioP1;P1;durP2;ratioP2;P2;SDS_P1;SDS_P2;PMS_P1;PMS_P2;Temp;Humidity;BMP_temperature;BMP_pressure;BME280_temperature;BME280_humidity;BME280_pressure;Samples;Min_cycle;Max_cycle;Signal;HPM_P1;HPM_P2
2022/01/13 00:01:57;;;;;;;1999.90;999.90;;;;;;;-0.58;91.25;162244.72;5049323;28;20446;-69
2022/01/13 00:04:24;;;;;;;1999.90;999.90;;;;;;;-0.88;92.23;162165.47;5049504;28;20141;-69
2022/01/13 00:06:51;;;;;;;1999.90;999.90;;;;;;;-0.71;92.18;162211.94;5050442;28;20045;-69
2022/01/13 00:09:18;;;;;;;1999.90;999.90;;;;;;;-0.38;90.93;162299.38;5042496;28;20061;-69
2022/01/13 00:11:49;;;;;;;1999.90;999.90;;;;;;;0.03;89.92;162407.41;5048171;28;20053;-69
2022/01/13 00:22:38;;;;;;;1999.90;999.90;;;;;;;0.43;88.41;162512.66;5040039;28;20308;-70
2022/01/13 00:25:08;;;;;;;1999.90;999.90;;;;;;;0.69;87.43;162582.44;5048159;28;20106;-70
2022/01/13 00:27:37;;;;;;;1999.90;999.90;;;;;;;0.76;86.73;162600.19;5047238;28;20503;-70
2022/01/13 00:30:13;;;;;;;1999.90;999.90;;;;;;;0.56;87.92;162546.88;5048525;28;20110;-70
2022/01/13 00:32:39;;;;;;;1999.90;999.90;;;;;;;0.42;87.89;162509.97;5048185;28;20426;-70
2022/01/13 00:35:07;;;;;;;1999.90;999.90;;;;;;;0.43;88.00;162514.06;5048808;28;20223;-68
2022/01/13 00:37:35;;;;;;;1999.90;999.90;;;;;;;0.20;88.57;162452.53;5046834;28;20041;-68
2022/01/13 00:40:04;;;;;;;1999.90;999.90;;;;;;;-0.31;90.76;162315.78;5048853;28;20076;-67
2022/01/13 00:42:32;;;;;;;1999.90;999.90;;;;;;;-0.05;89.89;162386.88;5048471;28;20076;-67
2022/01/13 00:45:01;;;;;;;1999.90;999.90;;;;;;;0.01;89.85;162400.56;5047690;28;20257;-68
2022/01/13 00:47:29;;;;;;;1999.90;999.90;;;;;;;-0.61;92.11;162237.91;5048306;28;20049;-67
2022/01/13 00:49:59;;;;;;;1999.90;999.90;;;;;;;-0.82;93.47;162181.91;5049052;28;20076;-68
2022/01/13 00:52:26;;;;;;;1999.90;999.90;;;;;;;-0.92;93.60;162155.94;5043440;28;20089;-67
2022/01/13 00:54:53;;;;;;;1999.90;999.90;;;;;;;-0.74;93.65;162202.41;5050217;28;20049;-69
2022/01/13 00:57:19;;;;;;;1999.90;999.90;;;;;;;-0.64;94.03;162228.31;5049600;28;20041;-69
2022/01/13 00:59:46;;;;;;;1999.90;999.90;;;;;;;-0.63;94.32;162231.06;5048672;28;20134;-69
2022/01/13 01:02:13;;;;;;;1999.90;999.90;;;;;;;-0.38;94.21;162299.38;5049314;28;20095;-69
2022/01/13 01:04:40;;;;;;;1999.90;999.90;;;;;;;-0.44;94.92;162283.00;5048083;28;20052;-69
2022/01/13 01:07:06;;;;;;;1999.90;999.90;;;;;;;-0.32;93.96;162313.09;5047548;28;20048;-69
2022/01/13 01:09:46;;;;;;;1999.90;999.90;;;;;;;-0.19;94.05;162348.63;5048321;28;20361;-69
2022/01/13 01:12:14;;;;;;;1999.90;999.90;;;;;;;-0.01;93.58;162397.81;5044019;28;20103;-69
2022/01/13 01:14:46;;;;;;;1999.90;999.90;;;;;;;0.03;93.24;162406.00;5040192;28;20079;-69
2022/01/13 01:17:16;;;;;;;1999.90;999.90;;;;;;;0.06;93.20;162414.22;5038390;28;20080;-69
2022/01/13 01:19:47;;;;;;;1999.90;999.90;;;;;;;0.05;92.93;162412.88;5044708;28;20152;-69
2022/01/13 01:25:01;;;;;;;1999.90;999.90;;;;;;;0.09;94.11;162423.81;5045563;28;20091;-69
2022/01/13 01:27:34;;;;;;;1999.90;999.90;;;;;;;-0.46;95.78;162277.56;5040095;28;20491;-69
2022/01/13 01:30:11;;;;;;;1999.90;999.90;;;;;;;-0.52;96.94;162261.16;5047948;28;20041;-69
2022/01/13 01:32:40;;;;;;;1999.90;999.90;;;;;;;-0.22;96.57;162340.44;5047687;28;20048;-69
2022/01/13 01:35:14;;;;;;;1999.90;999.90;;;;;;;-0.05;95.43;162385.53;5042443;28;20070;-69
2022/01/13 01:37:42;;;;;;;1999.90;999.90;;;;;;;-0.19;96.22;162349.97;5039708;28;20076;-69
2022/01/13 01:40:11;;;;;;;1999.90;999.90;;;;;;;-0.02;96.03;162395.06;5043728;28;20397;-69
2022/01/13 01:42:38;;;;;;;1999.90;999.90;;;;;;;-0.15;96.68;162359.53;5037368;28;20103;-69
2022/01/13 01:45:07;;;;;;;1999.90;999.90;;;;;;;-0.31;97.14;162317.19;5043280;28;20041;-69
2022/01/13 01:47:35;;;;;;;1999.90;999.90;;;;;;;-0.47;98.55;162273.47;5047227;28;20079;-69
2022/01/13 01:50:17;;;;;;;1999.90;999.90;;;;;;;-0.97;100.00;162140.88;5047826;28;20339;-69
2022/01/13 01:52:53;;;;;;;1999.90;999.90;;;;;;;-0.85;100.00;162173.66;5042036;28;20437;-69
2022/01/13 01:55:20;;;;;;;1999.90;999.90;;;;;;;-0.48;100.00;162272.06;5042638;28;20147;-69
2022/01/13 01:57:50;;;;;;;1999.90;999.90;;;;;;;-0.28;99.91;162324.00;5046816;28;20453;-69
2022/01/13 02:00:19;;;;;;;1999.90;999.90;;;;;;;-0.20;99.17;162345.88;5047365;28;20114;-69
2022/01/13 02:02:46;;;;;;;1999.90;999.90;;;;;;;-0.37;99.81;162302.16;5046660;28;20491;-69
2022/01/13 02:05:13;;;;;;;1999.90;999.90;;;;;;;-0.60;100.00;162239.28;5047521;28;20059;-69
2022/01/13 02:07:40;;;;;;;1999.90;999.90;;;;;;;-0.27;100.00;162326.72;5049941;28;20044;-69
2022/01/13 02:10:08;;;;;;;1999.90;999.90;;;;;;;-0.38;100.00;162299.38;5050934;28;20048;-69
2022/01/13 02:12:40;;;;;;;1999.90;999.90;;;;;;;-0.08;100.00;162377.31;5047010;28;20099;-69
2022/01/13 02:17:39;;;;;;;1999.90;999.90;;;;;;;0.04;100.00;162410.13;5045718;28;20053;-69
2022/01/13 02:20:08;;;;;;;1999.90;999.90;;;;;;;0.74;98.45;162594.75;5047289;28;20111;-69
2022/01/13 02:22:35;;;;;;;1999.90;999.90;;;;;;;1.02;97.34;162671.34;5049654;28;20349;-69
2022/01/13 02:25:04;;;;;;;1999.90;999.90;;;;;;;1.18;96.02;162712.41;5046143;28;20087;-69
2022/01/13 02:27:30;;;;;;;1999.90;999.90;;;;;;;1.39;95.18;162768.50;5044036;28;20122;-69
2022/01/13 02:29:57;;;;;;;1999.90;999.90;;;;;;;1.36;95.19;162760.31;5042686;28;20053;-69
2022/01/13 02:32:23;;;;;;;1999.90;999.90;;;;;;;1.39;95.12;162769.88;5033608;28;20384;-69
2022/01/13 02:34:50;;;;;;;1999.90;999.90;;;;;;;1.42;94.82;162776.72;5045968;28;20123;-69
2022/01/13 02:37:17;;;;;;;1999.90;999.90;;;;;;;0.85;96.32;162624.88;5045130;28;20154;-68
2022/01/13 02:39:43;;;;;;;1999.90;999.90;;;;;;;0.69;96.80;162583.78;5046378;28;20098;-68
2022/01/13 02:42:14;;;;;;;1999.90;999.90;;;;;;;1.14;95.84;162702.81;5045816;28;20044;-69
2022/01/13 02:45:00;;;;;;;1999.90;999.90;;;;;;;1.19;94.63;162715.13;5047170;28;20045;-69
2022/01/13 02:47:37;;;;;;;1999.90;999.90;;;;;;;1.25;94.52;162731.59;5048394;28;20104;-69
2022/01/13 02:50:08;;;;;;;1999.90;999.90;;;;;;;1.20;94.52;162717.88;5045693;28;20077;-69
2022/01/13 02:52:35;;;;;;;1999.90;999.90;;;;;;;1.21;94.92;162720.63;5045587;28;20053;-69
2022/01/13 02:55:02;;;;;;;1999.90;999.90;;;;;;;1.24;94.37;162728.84;5045156;28;20049;-69
2022/01/13 02:57:29;;;;;;;1999.90;999.90;;;;;;;0.99;94.48;162663.13;5045784;28;20065;-69
2022/01/13 02:59:56;;;;;;;1999.90;999.90;;;;;;;0.97;95.04;162656.28;5047079;28;20469;-69
2022/01/13 03:02:29;;;;;;;1999.90;999.90;;;;;;;1.17;94.58;162709.66;5037760;28;20081;-69
2022/01/13 03:04:56;;;;;;;1999.90;999.90;;;;;;;1.19;94.07;162716.53;5045787;28;20056;-69
2022/01/13 03:07:23;;;;;;;1999.90;999.90;;;;;;;1.23;93.68;162726.06;5044728;28;20530;-69
2022/01/13 03:09:49;;;;;;;1999.90;999.90;;;;;;;1.16;93.71;162706.91;5045052;28;20079;-69
2022/01/13 03:12:16;;;;;;;1999.90;999.90;;;;;;;1.33;93.62;162753.44;5044885;28;20045;-69
2022/01/13 03:14:43;;;;;;;1999.90;999.90;;;;;;;1.30;93.92;162743.91;5067053;28;20098;-69
2022/01/13 03:17:09;;;;;;;1999.90;999.90;;;;;;;1.23;94.25;162726.06;5049719;28;20053;-69
2022/01/13 03:19:36;;;;;;;1999.90;999.90;;;;;;;1.20;95.13;162719.22;5049438;28;20464;-69
2022/01/13 03:22:03;;;;;;;1999.90;999.90;;;;;;;1.43;93.83;162778.06;5048671;28;20088;-69
2022/01/13 03:24:31;;;;;;;1999.90;999.90;;;;;;;1.51;92.79;162801.34;5049068;28;20481;-69
2022/01/13 03:27:02;;;;;;;1999.90;999.90;;;;;;;1.39;93.50;162769.88;5048214;28;20318;-69
2022/01/13 03:29:30;;;;;;;1999.90;999.90;;;;;;;1.58;93.01;162819.16;5049107;28;20128;-69
2022/01/13 03:31:57;;;;;;;1999.90;999.90;;;;;;;1.56;92.74;162813.66;5050157;28;20122;-69
2022/01/13 03:34:24;;;;;;;1999.90;999.90;;;;;;;1.50;92.96;162797.25;5049504;28;20044;-68
2022/01/13 03:36:50;;;;;;;1999.90;999.90;;;;;;;1.39;93.26;162768.50;5048179;28;20081;-69
2022/01/13 03:39:17;;;;;;;1999.90;999.90;;;;;;;1.21;94.40;162720.63;5048057;28;20103;-69
2022/01/13 03:41:44;;;;;;;1999.90;999.90;;;;;;;0.18;98.01;162447.06;5049225;28;20092;-68
2022/01/13 03:44:18;;;;;;;1999.90;999.90;;;;;;;0.07;99.26;162418.31;5050629;28;20044;-69
2022/01/13 03:46:45;;;;;;;1999.90;999.90;;;;;;;0.15;98.26;162438.88;5049410;28;20492;-69
2022/01/13 03:49:11;;;;;;;1999.90;999.90;;;;;;;0.17;98.79;162444.31;5050218;28;20052;-69
2022/01/13 03:52:22;;;;;;;1999.90;999.90;;;;;;;-0.32;100.00;162313.09;5049378;28;20351;-69
2022/01/13 03:55:27;;;;;;;1999.90;999.90;;;;;;;-0.55;100.00;162254.31;5030947;28;20095;-68
2022/01/13 03:58:36;;;;;;;1999.90;999.90;;;;;;;-0.18;100.00;162351.31;5049317;28;20048;-69
2022/01/13 04:01:34;;;;;;;1999.90;999.90;;;;;;;-0.06;100.00;162384.16;5015689;28;20055;-68
2022/01/13 04:04:01;;;;;;;1999.90;999.90;;;;;;;-0.34;100.00;162309.00;5037239;28;20045;-68
2022/01/13 04:06:33;;;;;;;1999.90;999.90;;;;;;;-0.36;100.00;162304.88;5040668;28;20283;-68
2022/01/13 04:09:07;;;;;;;1999.90;999.90;;;;;;;-0.15;100.00;162359.53;5049588;28;20439;-68
2022/01/13 04:11:34;;;;;;;1999.90;999.90;;;;;;;0.04;100.00;162408.78;5046458;28;20273;-68
2022/01/13 04:14:02;;;;;;;1999.90;999.90;;;;;;;-0.48;100.00;162272.06;5041254;28;20106;-68
2022/01/13 04:16:31;;;;;;;1999.90;999.90;;;;;;;-0.35;100.00;162306.25;5044334;28;20114;-68
2022/01/13 04:19:04;;;;;;;1999.90;999.90;;;;;;;0.09;99.78;162423.81;5037102;28;20136;-68
2022/01/13 04:21:37;;;;;;;1999.90;999.90;;;;;;;-0.04;100.00;162389.63;5048662;28;20152;-68
2022/01/13 04:24:05;;;;;;;1999.90;999.90;;;;;;;-0.03;99.98;162390.97;5047523;28;20053;-68
2022/01/13 04:26:34;;;;;;;1999.90;999.90;;;;;;;-0.28;100.00;162324.00;5047936;28;20385;-68
2022/01/13 04:31:38;;;;;;;1999.90;999.90;;;;;;;-0.04;100.00;162388.28;5038915;28;20481;-68
2022/01/13 04:34:05;;;;;;;1999.90;999.90;;;;;;;-0.34;100.00;162307.59;5040240;28;20056;-69
2022/01/13 04:36:31;;;;;;;1999.90;999.90;;;;;;;-0.13;100.00;162365.03;5049867;28;20049;-69
2022/01/13 04:38:58;;;;;;;1999.90;999.90;;;;;;;-0.03;100.00;162392.38;5039973;28;20045;-70
2022/01/13 04:41:34;;;;;;;1999.90;999.90;;;;;;;-0.28;100.00;162325.38;5044490;28;20048;-69
2022/01/13 04:44:05;;;;;;;1999.90;999.90;;;;;;;-0.16;100.00;162356.81;5051066;28;20052;-68
2022/01/13 04:46:32;;;;;;;1999.90;999.90;;;;;;;-0.25;100.00;162332.22;5050746;28;20059;-69
2022/01/13 04:49:01;;;;;;;1999.90;999.90;;;;;;;-0.42;100.00;162288.44;5059525;28;20041;-69
2022/01/13 04:51:28;;;;;;;1999.90;999.90;;;;;;;-0.02;100.00;162393.72;5054479;28;20057;-69
2022/01/13 04:53:55;;;;;;;1999.90;999.90;;;;;;;-0.20;100.00;162345.88;5041919;28;20053;-69
2022/01/13 04:56:30;;;;;;;1999.90;999.90;;;;;;;-0.48;100.00;162272.06;5041864;28;20045;-69
2022/01/13 04:58:58;;;;;;;1999.90;999.90;;;;;;;-0.42;100.00;162287.09;5049460;28;20077;-69
2022/01/13 05:01:24;;;;;;;1999.90;999.90;;;;;;;-0.24;100.00;162334.94;5053276;28;20080;-69
2022/01/13 05:03:51;;;;;;;1999.90;999.90;;;;;;;-0.08;99.92;162377.31;5051753;28;20049;-69
2022/01/13 05:06:19;;;;;;;1999.90;999.90;;;;;;;0.05;99.79;162411.50;5038630;28;20092;-69
2022/01/13 05:08:46;;;;;;;1999.90;999.90;;;;;;;0.14;99.14;162436.13;5045725;28;20383;-69
2022/01/13 05:11:14;;;;;;;1999.90;999.90;;;;;;;-0.01;98.77;162397.81;5047266;28;20115;-69
2022/01/13 05:13:40;;;;;;;1999.90;999.90;;;;;;;-0.03;99.30;162390.97;5048639;28;20106;-69
2022/01/13 05:16:10;;;;;;;1999.90;999.90;;;;;;;0.28;98.46;162473.03;5047394;28;20075;-69
2022/01/13 05:21:24;;;;;;;1999.90;999.90;;;;;;;0.08;99.53;162419.72;5055472;28;20098;-69
2022/01/13 05:23:52;;;;;;;1999.90;999.90;;;;;;;-0.07;99.36;162381.41;5053372;28;20053;-69
2022/01/13 05:26:21;;;;;;;1999.90;999.90;;;;;;;-0.11;99.90;162370.47;5057644;28;20093;-69
2022/01/13 05:28:48;;;;;;;1999.90;999.90;;;;;;;0.04;99.06;162408.78;5048004;28;20087;-69
2022/01/13 05:31:14;;;;;;;1999.90;999.90;;;;;;;0.33;98.74;162488.06;5049114;28;20087;-69
2022/01/13 05:33:42;;;;;;;1999.90;999.90;;;;;;;0.45;97.25;162519.53;5052416;28;20044;-69
2022/01/13 05:36:08;;;;;;;1999.90;999.90;;;;;;;0.48;97.53;162527.72;5052083;28;20272;-69
2022/01/13 05:38:35;;;;;;;1999.90;999.90;;;;;;;0.66;96.31;162574.25;5048634;28;20468;-69
2022/01/13 05:41:02;;;;;;;1999.90;999.90;;;;;;;0.69;95.85;162583.78;5047369;28;20045;-69
2022/01/13 05:43:28;;;;;;;1999.90;999.90;;;;;;;0.69;95.40;162583.78;5048035;28;20090;-69
2022/01/13 05:45:55;;;;;;;1999.90;999.90;;;;;;;0.57;96.25;162550.97;5047601;28;20056;-69
2022/01/13 05:48:21;;;;;;;1999.90;999.90;;;;;;;0.79;95.66;162609.81;5046945;28;20080;-69
2022/01/13 05:50:48;;;;;;;1999.90;999.90;;;;;;;0.63;95.69;162567.38;5051168;28;20446;-69
2022/01/13 05:53:15;;;;;;;1999.90;999.90;;;;;;;0.82;95.32;162616.59;5042973;28;20134;-69
2022/01/13 05:55:41;;;;;;;1999.90;999.90;;;;;;;0.41;97.11;162507.22;5048066;28;20049;-69
2022/01/13 05:58:08;;;;;;;1999.90;999.90;;;;;;;0.57;96.80;162549.63;5047616;28;20080;-69
2022/01/13 06:00:34;;;;;;;1999.90;999.90;;;;;;;0.14;97.75;162436.13;5047004;28;20049;-69
2022/01/13 06:03:02;;;;;;;1999.90;999.90;;;;;;;0.06;98.12;162415.63;5047473;28;20044;-69
2022/01/13 06:05:29;;;;;;;1999.90;999.90;;;;;;;-0.27;99.09;162328.13;5048078;28;20404;-69
2022/01/13 06:07:56;;;;;;;1999.90;999.90;;;;;;;-0.67;100.00;162221.53;5048470;28;20397;-69
2022/01/13 06:10:22;;;;;;;1999.90;999.90;;;;;;;-0.30;100.00;162318.53;5049026;28;20442;-69
2022/01/13 06:12:51;;;;;;;1999.90;999.90;;;;;;;-0.06;100.00;162382.78;5047540;28;20395;-69
2022/01/13 06:15:20;;;;;;;1999.90;999.90;;;;;;;0.12;97.95;162430.63;5026917;28;20497;-69
2022/01/13 06:17:50;;;;;;;1999.90;999.90;;;;;;;0.09;98.52;162423.81;5045166;28;20054;-69
2022/01/13 06:20:18;;;;;;;1999.90;999.90;;;;;;;-0.52;100.00;162259.75;5047792;28;20095;-69
2022/01/13 06:22:45;;;;;;;1999.90;999.90;;;;;;;-0.31;100.00;162317.19;5048087;28;20158;-69
2022/01/13 06:25:13;;;;;;;1999.90;999.90;;;;;;;-0.64;100.00;162228.31;5048384;28;20056;-69
2022/01/13 06:27:41;;;;;;;1999.90;999.90;;;;;;;-0.71;100.00;162211.94;5047212;28;20111;-69
2022/01/13 06:30:28;;;;;;;1999.90;999.90;;;;;;;-0.41;100.00;162291.19;5047506;28;20056;-69
2022/01/13 06:32:54;;;;;;;1999.90;999.90;;;;;;;-0.44;100.00;162283.00;5047651;28;20049;-69
2022/01/13 06:35:21;;;;;;;1999.90;999.90;;;;;;;-0.15;99.88;162359.53;5047511;28;20087;-69
2022/01/13 06:37:47;;;;;;;1999.90;999.90;;;;;;;-0.36;99.87;162304.88;5047768;28;20462;-69
2022/01/13 06:40:15;;;;;;;1999.90;999.90;;;;;;;-0.23;100.00;162337.69;5035428;28;20061;-69
2022/01/13 06:42:41;;;;;;;1999.90;999.90;;;;;;;-0.34;100.00;162309.00;5047468;28;20076;-69
2022/01/13 06:45:10;;;;;;;1999.90;999.90;;;;;;;-0.67;100.00;162220.13;5046944;28;20079;-69
2022/01/13 06:47:38;;;;;;;1999.90;999.90;;;;;;;-1.11;100.00;162105.38;5042410;28;20049;-69
2022/01/13 06:50:07;;;;;;;1999.90;999.90;;;;;;;-0.71;100.00;162211.94;5039425;28;20091;-69
2022/01/13 06:52:34;;;;;;;1999.90;999.90;;;;;;;-0.85;100.00;162173.66;5037644;28;20057;-69
2022/01/13 06:55:00;;;;;;;1999.90;999.90;;;;;;;-0.99;100.00;162135.44;5048627;28;20056;-69
2022/01/13 06:57:29;;;;;;;1999.90;999.90;;;;;;;-1.07;100.00;162116.31;5047594;28;20101;-69
2022/01/13 06:59:57;;;;;;;1999.90;999.90;;;;;;;-0.93;100.00;162151.84;5043301;28;20503;-69
2022/01/13 07:02:25;;;;;;;1999.90;999.90;;;;;;;-0.68;100.00;162217.44;5042029;28;20103;-69
2022/01/13 07:04:52;;;;;;;1999.90;999.90;;;;;;;-0.52;100.00;162261.16;5039012;28;20057;-69
2022/01/13 07:07:19;;;;;;;1999.90;999.90;;;;;;;-0.75;100.00;162201.00;5036566;28;23420;-69
2022/01/13 07:09:45;;;;;;;1999.90;999.90;;;;;;;-0.44;100.00;162283.00;5035823;28;20321;-69
2022/01/13 07:12:12;;;;;;;1999.90;999.90;;;;;;;-0.29;100.00;162322.63;5045948;28;20146;-69
2022/01/13 07:14:39;;;;;;;1999.90;999.90;;;;;;;-0.15;100.00;162359.53;5047470;28;20049;-69
2022/01/13 07:17:06;;;;;;;1999.90;999.90;;;;;;;-0.12;100.00;162366.38;5046800;28;20071;-69
2022/01/13 07:19:32;;;;;;;1999.90;999.90;;;;;;;0.10;100.00;162426.50;5046231;28;20127;-69
2022/01/13 07:21:59;;;;;;;1999.90;999.90;;;;;;;-0.03;100.00;162390.97;5034096;28;20080;-69
2022/01/13 07:24:25;;;;;;;1999.90;999.90;;;;;;;-0.58;100.00;162244.72;5041721;28;20069;-69
2022/01/13 07:26:52;;;;;;;1999.90;999.90;;;;;;;-0.41;100.00;162291.19;5035408;28;20085;-69
2022/01/13 07:29:18;;;;;;;1999.90;999.90;;;;;;;-0.13;100.00;162365.03;5049035;28;20095;-69
2022/01/13 07:31:47;;;;;;;1999.90;999.90;;;;;;;0.28;100.00;162473.03;5046494;28;20072;-69
2022/01/13 07:34:14;;;;;;;1999.90;999.90;;;;;;;-0.09;100.00;162374.56;5046706;28;20725;-69
2022/01/13 07:36:40;;;;;;;1999.90;999.90;;;;;;;0.10;100.00;162425.16;5047775;28;20122;-69
2022/01/13 07:39:08;;;;;;;1999.90;999.90;;;;;;;0.16;100.00;162441.56;5046859;28;20045;-69
2022/01/13 07:41:36;;;;;;;1999.90;999.90;;;;;;;-0.18;100.00;162351.31;5036219;28;20103;-69
2022/01/13 07:44:05;;;;;;;1999.90;999.90;;;;;;;-0.36;100.00;162303.50;5042672;28;20073;-69
2022/01/13 07:46:32;;;;;;;1999.90;999.90;;;;;;;-0.25;100.00;162332.22;5046634;28;20049;-69
2022/01/13 07:48:59;;;;;;;1999.90;999.90;;;;;;;-0.27;100.00;162328.13;5047267;28;20045;-69
2022/01/13 07:51:26;;;;;;;1999.90;999.90;;;;;;;-0.41;100.00;162291.19;5047730;28;20053;-69
2022/01/13 07:53:52;;;;;;;1999.90;999.90;;;;;;;-0.50;100.00;162266.59;5047106;28;20048;-69
2022/01/13 07:56:19;;;;;;;1999.90;999.90;;;;;;;-0.29;100.00;162321.28;5037072;28;20049;-69
2022/01/13 07:58:46;;;;;;;1999.90;999.90;;;;;;;0.06;100.00;162414.22;5038503;28;20053;-69
2022/01/13 08:01:13;;;;;;;1999.90;999.90;;;;;;;-0.15;100.00;162359.53;5038893;28;20464;-69
2022/01/13 08:03:41;;;;;;;1999.90;999.90;;;;;;;-0.83;100.00;162179.16;5039951;28;20055;-69
2022/01/13 08:06:07;;;;;;;1999.90;999.90;;;;;;;-0.21;100.00;162343.13;5051521;28;20519;-69
2022/01/13 08:08:35;;;;;;;1999.90;999.90;;;;;;;0.07;100.00;162416.97;5049593;28;20315;-69
2022/01/13 08:11:04;;;;;;;1999.90;999.90;;;;;;;-0.28;100.00;162325.38;5050317;28;20426;-69
2022/01/13 08:13:32;;;;;;;1999.90;999.90;;;;;;;-0.42;100.00;162287.09;5048832;28;20368;-69
2022/01/13 08:16:07;;;;;;;1999.90;999.90;;;;;;;-0.28;100.00;162324.00;5057381;28;20080;-69
2022/01/13 08:21:19;;;;;;;1999.90;999.90;;;;;;;0.09;100.00;162423.81;5045144;28;20810;-69
2022/01/13 08:23:46;;;;;;;1999.90;999.90;;;;;;;-0.04;100.00;162389.63;5050855;28;20080;-69
2022/01/13 08:26:13;;;;;;;1999.90;999.90;;;;;;;-0.33;100.00;162310.34;5050070;28;20147;-69
2022/01/13 08:28:39;;;;;;;1999.90;999.90;;;;;;;-0.04;100.00;162389.63;5049784;28;20080;-69
2022/01/13 08:31:06;;;;;;;1999.90;999.90;;;;;;;0.41;100.00;162507.22;5046413;28;20484;-69
2022/01/13 08:33:32;;;;;;;1999.90;999.90;;;;;;;0.19;100.00;162449.75;5040313;28;20091;-69
2022/01/13 08:36:02;;;;;;;1999.90;999.90;;;;;;;0.35;100.00;162493.53;5038778;28;20048;-69
2022/01/13 08:38:28;;;;;;;1999.90;999.90;;;;;;;0.63;100.00;162566.03;5050300;28;20055;-69
2022/01/13 08:40:57;;;;;;;1999.90;999.90;;;;;;;0.24;100.00;162462.06;5049350;28;20108;-69
2022/01/13 08:43:26;;;;;;;1999.90;999.90;;;;;;;0.48;100.00;162527.72;5048691;28;20116;-69
2022/01/13 08:45:53;;;;;;;1999.90;999.90;;;;;;;0.78;99.93;162605.69;5051290;28;20346;-69
2022/01/13 08:48:20;;;;;;;1999.90;999.90;;;;;;;0.64;100.00;162570.13;5049379;28;20119;-69
2022/01/13 08:50:47;;;;;;;1999.90;999.90;;;;;;;0.09;100.00;162422.41;5037200;28;20049;-69
2022/01/13 08:53:15;;;;;;;1999.90;999.90;;;;;;;0.45;100.00;162519.53;5050612;28;20049;-69
2022/01/13 08:55:42;;;;;;;1999.90;999.90;;;;;;;0.90;100.00;162638.53;5048839;28;20044;-69
2022/01/13 08:58:09;;;;;;;1999.90;999.90;;;;;;;0.64;100.00;162570.13;5048893;28;20084;-69
2022/01/13 09:00:37;;;;;;;1999.90;999.90;;;;;;;1.07;99.97;162682.28;5051772;28;20540;-69
2022/01/13 09:03:07;;;;;;;1999.90;999.90;;;;;;;0.77;100.00;162602.94;5051925;28;20045;-69
2022/01/13 09:05:36;;;;;;;1999.90;999.90;;;;;;;0.65;100.00;162572.84;5050093;28;20465;-69
2022/01/13 09:08:07;;;;;;;1999.90;999.90;;;;;;;0.58;100.00;162553.72;5050094;28;20052;-69
2022/01/13 09:10:34;;;;;;;1999.90;999.90;;;;;;;0.60;100.00;162559.19;5053940;28;20072;-69
2022/01/13 09:13:01;;;;;;;1999.90;999.90;;;;;;;0.72;100.00;162589.28;5048382;28;20076;-69
2022/01/13 09:17:59;;;;;;;1999.90;999.90;;;;;;;1.34;99.91;162756.22;5049552;28;20450;-69
2022/01/13 09:20:25;;;;;;;1999.90;999.90;;;;;;;1.34;99.73;162754.81;5048013;28;20077;-69
2022/01/13 09:22:52;;;;;;;1999.90;999.90;;;;;;;1.05;100.00;162679.53;5047095;28;20441;-69
2022/01/13 09:25:19;;;;;;;1999.90;999.90;;;;;;;1.27;99.53;162735.69;5048380;28;20084;-69
2022/01/13 09:27:46;;;;;;;1999.90;999.90;;;;;;;1.01;99.55;162667.25;5047692;28;20050;-69
2022/01/13 09:30:14;;;;;;;1999.90;999.90;;;;;;;1.00;100.00;162665.88;5048343;28;20095;-70
2022/01/13 09:32:41;;;;;;;1999.90;999.90;;;;;;;1.11;100.00;162694.59;5039588;28;20095;-69
2022/01/13 09:35:08;;;;;;;1999.90;999.90;;;;;;;1.73;98.15;162858.88;5046162;28;20096;-67
2022/01/13 09:37:35;;;;;;;1999.90;999.90;;;;;;;1.69;97.56;162849.25;5061171;28;20088;-67
2022/01/13 09:40:07;;;;;;;1999.90;999.90;;;;;;;1.55;98.40;162812.31;5048718;28;20069;-68
2022/01/13 09:42:35;;;;;;;1999.90;999.90;;;;;;;1.32;98.74;162749.34;5046956;28;20049;-68
2022/01/13 09:45:04;;;;;;;1999.90;999.90;;;;;;;1.33;99.55;162752.09;5056233;28;20111;-68
2022/01/13 09:47:32;;;;;;;1999.90;999.90;;;;;;;1.34;98.93;162756.22;5046525;28;20049;-68
2022/01/13 09:50:01;;;;;;;1999.90;999.90;;;;;;;1.05;100.00;162679.53;5050135;28;20434;-68
2022/01/13 09:52:28;;;;;;;1999.90;999.90;;;;;;;1.25;100.00;162730.19;5045020;28;20053;-68
2022/01/13 09:54:55;;;;;;;1999.90;999.90;;;;;;;1.17;100.00;162709.66;5047905;28;20115;-68
2022/01/13 09:57:22;;;;;;;1999.90;999.90;;;;;;;1.23;100.00;162727.44;5047416;28;20056;-68
2022/01/13 09:59:49;;;;;;;1999.90;999.90;;;;;;;1.19;100.00;162715.13;5046874;28;20076;-68
2022/01/13 10:02:16;;;;;;;1999.90;999.90;;;;;;;1.16;100.00;162708.31;5048064;28;20342;-68
2022/01/13 10:04:49;;;;;;;1999.90;999.90;;;;;;;1.28;100.00;162738.38;5048881;28;20111;-68
2022/01/13 10:07:30;;;;;;;1999.90;999.90;;;;;;;1.74;99.12;162861.56;5045425;28;20130;-67
2022/01/13 10:10:20;;;;;;;1999.90;999.90;;;;;;;1.33;100.00;162753.44;5047871;28;20049;-68
2022/01/13 10:18:54;;;;;;;1999.90;999.90;;;;;;;1.60;99.19;162824.63;5013188;28;20054;-68
2022/01/13 10:21:20;;;;;;;1999.90;999.90;;;;;;;1.92;98.13;162909.47;4996879;28;20319;-68
2022/01/13 10:24:12;;;;;;;1999.90;999.90;;;;;;;2.11;97.54;162961.53;5008512;28;20094;-68
2022/01/13 10:26:40;;;;;;;1999.90;999.90;;;;;;;1.93;99.26;162912.22;5009625;28;20054;-68
2022/01/13 10:29:08;;;;;;;1999.90;999.90;;;;;;;2.55;95.88;163077.94;5006930;28;20042;-68
2022/01/13 10:31:51;;;;;;;1999.90;999.90;;;;;;;2.08;97.04;162953.31;5008813;28;20077;-69
2022/01/13 10:34:22;;;;;;;1999.90;999.90;;;;;;;2.23;97.54;162991.63;5008783;28;20058;-69
2022/01/13 10:37:17;;;;;;;1999.90;999.90;;;;;;;2.15;97.57;162971.09;5008327;28;20132;-68
2022/01/13 10:40:03;;;;;;;1999.90;999.90;;;;;;;1.95;98.00;162917.72;5002038;28;20377;-69
2022/01/13 10:43:18;;;;;;;1999.90;999.90;;;;;;;1.96;99.15;162920.44;5006220;28;20108;-69
2022/01/13 10:45:20;;;;;;;1999.90;999.90;;;;;;;2.15;97.86;162971.09;5004639;28;20051;-69
2022/01/13 10:47:52;;;;;;;1999.90;999.90;;;;;;;2.48;96.54;163058.75;5005344;28;20389;-69
2022/01/13 10:50:20;;;;;;;1999.90;999.90;;;;;;;1.90;98.61;162905.38;4997816;28;20042;-69
2022/01/13 10:52:49;;;;;;;1999.90;999.90;;;;;;;2.01;99.24;162934.16;5005733;28;20077;-69
2022/01/13 10:55:24;;;;;;;1999.90;999.90;;;;;;;2.30;97.19;163010.81;4999031;28;20136;-69
2022/01/13 10:58:13;;;;;;;1999.90;999.90;;;;;;;1.99;99.07;162927.28;5007687;28;20045;-68
2022/01/13 11:00:41;;;;;;;1999.90;999.90;;;;;;;2.02;99.45;162936.84;5008804;28;20042;-69
2022/01/13 11:03:20;;;;;;;1999.90;999.90;;;;;;;2.10;98.53;162957.44;5009144;28;20041;-70
2022/01/13 11:05:59;;;;;;;1999.90;999.90;;;;;;;2.16;98.83;162973.88;5008285;28;20085;-69
2022/01/13 11:08:40;;;;;;;1999.90;999.90;;;;;;;2.15;99.22;162969.75;5009025;28;20054;-69
2022/01/13 11:11:20;;;;;;;1999.90;999.90;;;;;;;2.25;98.80;162997.16;5005473;28;20050;-68
2022/01/13 11:13:56;;;;;;;1999.90;999.90;;;;;;;2.36;98.45;163027.25;5012769;28;20057;-69
2022/01/13 11:16:24;;;;;;;1999.90;999.90;;;;;;;2.62;98.13;163095.72;5005624;28;20069;-69
2022/01/13 11:18:52;;;;;;;1999.90;999.90;;;;;;;2.73;96.80;163125.88;5006734;28;20363;-69
2022/01/13 11:21:19;;;;;;;1999.90;999.90;;;;;;;2.42;97.95;163042.31;5005365;28;20046;-69
2022/01/13 11:23:49;;;;;;;1999.90;999.90;;;;;;;2.50;98.58;163064.25;5005655;28;20054;-69
2022/01/13 11:26:17;;;;;;;1999.90;999.90;;;;;;;2.17;99.75;162975.22;5015506;28;20050;-68
2022/01/13 11:28:44;;;;;;;1999.90;999.90;;;;;;;2.28;99.21;163005.34;5006483;28;20050;-69